PWSweather.com
Personal Weather Stations
Station Observations
AKANCHO109
Seawind Drive, Anchorage, AK 99516

Seawind DriveAnchorage, AK 99516

Lat: 61.0988, Lon: -149.8265

Elevation: 280

Station Type: Davis Vantage Pro

http://www.willowweather.com/anchorage/wx.html

Latest ConditionsUpdated 2:35:14 AM AKST Wednesday, Jul 17, 2019
Currently Today's Max Today's Min Today's Average
Temperature 51.4°F10.8°C 57.5°F14.2°C 51.4°F10.8°C 54.6°F12.6°C
Dew Point 48.6°F9.2°C 53.6°F12.0°C 48.6°F9.2°C 51.1°F10.6°C
Winds Calm Calm Calm -Calm - - Calm Calm
Wind Gusts -- 1.2 mph1.9 kmh - -
Humidity 90% 90% 85% 88%
Pressure 29.61 in1002.7 mb 29.61 in1002.7 mb 29.58 in1001.7 mb -
Hour Temp Dew Point Humidity Winds Wind Gusts Pressure Precip Precip Rate Daily Precip Total
02:35 AM 51.4°F10.8°C 48.6°F9.2°C 90% Calm Calm -- 29.61 in1002.7 mb - 0.00 in0.0 mm 0.00 in0.0 mm
02:30 AM 51.5°F10.8°C 48.7°F9.3°C 90% Calm Calm -- 29.61 in1002.7 mb - 0.00 in0.0 mm 0.00 in0.0 mm
02:25 AM 51.7°F10.9°C 48.9°F9.4°C 90% Calm Calm -- 29.61 in1002.7 mb - 0.00 in0.0 mm 0.00 in0.0 mm
02:20 AM 51.9°F11.1°C 49.0°F9.4°C 90% Calm Calm -- 29.61 in1002.7 mb - 0.00 in0.0 mm 0.00 in0.0 mm
02:15 AM 52.0°F11.1°C 49.2°F9.6°C 90% Calm Calm -- 29.60 in1002.4 mb - 0.00 in0.0 mm 0.00 in0.0 mm
02:10 AM 52.2°F11.2°C 49.3°F9.6°C 90% Calm Calm -- 29.60 in1002.4 mb - 0.00 in0.0 mm 0.00 in0.0 mm
02:00 AM 52.6°F11.4°C 49.7°F9.8°C 90% Calm Calm -- 29.60 in1002.4 mb - 0.00 in0.0 mm 0.00 in0.0 mm
01:55 AM 52.8°F11.6°C 49.7°F9.8°C 89% Calm Calm -- 29.60 in1002.4 mb - 0.00 in0.0 mm 0.00 in0.0 mm
01:50 AM 53.0°F11.7°C 50.2°F10.1°C 90% Calm Calm -- 29.60 in1002.4 mb - 0.00 in0.0 mm 0.00 in0.0 mm
01:45 AM 53.3°F11.8°C 50.1°F10.1°C 89% Calm Calm -- 29.60 in1002.4 mb - 0.00 in0.0 mm 0.00 in0.0 mm
01:40 AM 53.5°F11.9°C 50.4°F10.2°C 89% Calm Calm -- 29.60 in1002.4 mb - 0.00 in0.0 mm 0.00 in0.0 mm
01:35 AM 53.8°F12.1°C 50.6°F10.3°C 89% Calm Calm -- 29.60 in1002.4 mb - 0.00 in0.0 mm 0.00 in0.0 mm
01:30 AM 54.0°F12.2°C 50.9°F10.5°C 89% Calm Calm -- 29.60 in1002.4 mb - 0.00 in0.0 mm 0.00 in0.0 mm
01:25 AM 54.3°F12.4°C 50.8°F10.4°C 88% Calm Calm -- 29.60 in1002.4 mb - 0.00 in0.0 mm 0.00 in0.0 mm
01:20 AM 54.6°F12.6°C 51.1°F10.6°C 88% Calm Calm -- 29.60 in1002.4 mb - 0.00 in0.0 mm 0.00 in0.0 mm
01:15 AM 54.9°F12.7°C 51.1°F10.6°C 87% Calm Calm -- 29.60 in1002.4 mb - 0.00 in0.0 mm 0.00 in0.0 mm
01:10 AM 55.1°F12.8°C 51.3°F10.7°C 87% Calm Calm -- 29.60 in1002.4 mb - 0.00 in0.0 mm 0.00 in0.0 mm
01:00 AM 55.6°F13.1°C 51.5°F10.8°C 86% Calm Calm -- 29.60 in1002.4 mb - 0.00 in0.0 mm 0.00 in0.0 mm
12:55 AM 55.8°F13.2°C 51.7°F10.9°C 86% Calm Calm -- 29.59 in1002.0 mb - 0.00 in0.0 mm 0.00 in0.0 mm
12:50 AM 56.1°F13.4°C 51.7°F10.9°C 85% Calm Calm -- 29.59 in1002.0 mb - 0.00 in0.0 mm 0.00 in0.0 mm
12:45 AM 56.4°F13.6°C 52.3°F11.3°C 86% Calm Calm -- 29.59 in1002.0 mb - 0.00 in0.0 mm 0.00 in0.0 mm
12:40 AM 56.6°F13.7°C 52.1°F11.2°C 85% Calm Calm -- 29.59 in1002.0 mb - 0.00 in0.0 mm 0.00 in0.0 mm
12:35 AM 56.7°F13.7°C 52.6°F11.4°C 86% Calm Calm -- 29.59 in1002.0 mb - 0.00 in0.0 mm 0.00 in0.0 mm
12:30 AM 56.9°F13.8°C 52.7°F11.5°C 86% Calm Calm -- 29.59 in1002.0 mb - 0.00 in0.0 mm 0.00 in0.0 mm
12:25 AM 57.0°F13.9°C 53.1°F11.7°C 87% Calm Calm -- 29.59 in1002.0 mb - 0.00 in0.0 mm 0.00 in0.0 mm
12:20 AM 57.1°F13.9°C 53.3°F11.8°C 87% Calm Calm -- 29.59 in1002.0 mb - 0.00 in0.0 mm 0.00 in0.0 mm
12:15 AM 57.2°F14.0°C 53.4°F11.9°C 87% Calm Calm -- 29.58 in1001.7 mb - 0.00 in0.0 mm 0.00 in0.0 mm
12:10 AM 57.3°F14.1°C 53.5°F11.9°C 87% Calm Calm -- 29.58 in1001.7 mb - 0.00 in0.0 mm 0.00 in0.0 mm
12:00 AM 57.5°F14.2°C 53.6°F12.0°C 87% Calm Calm 1.2 mph1.9 kmh 29.58 in1001.7 mb - 0.00 in0.0 mm 0.00 in0.0 mm